Terminal Aerodrome Forecast
Issued by NWS

Home | Current Version | Previous Version | Text Only | Print | Product List | Glossary On
Versions: 1 2 3 4 5 6 7 8 9 10 11 12
092
FTUS45 KABQ 261740
TAFFMN
TAF
KFMN 261740Z 2618/2718 13006KT P6SM SCT040
     FM270000 10012G20KT P6SM VCSH BKN040
     FM271200 10011KT P6SM VCSH OVC040=

USA.gov is the U.S. government's official web portal to all federal, state and local government web resources and services.